PAL1788 RPVP-RPLL
Flight info
| Callsign | PAL1788 |
|---|---|
| Flight time | N/A |
| Altitude | 39000 |
| Route | DABOY1E DABOY W281 LEGED N884 LUBAN LUBAN5R |
| Aircraft | A35K/H-SDE2E3GHIJ3J4J5LM1ORWXY/LB1D1 |
Departure
| Time | 2026-04-26 14:15 |
|---|---|
| Airport | Puerto Princesa International Airport / PAF Antonio Bautista Air Base (RPVP) |
Arrival
| Time | N/A |
|---|---|
| Airport | Ninoy Aquino International Airport (RPLL) |
| Time | Latitude | Longitude | Altitude | Speed | Heading |
|---|---|---|---|---|---|
| 2026-04-26 13:52 | 9.74497 | 118.75058 | 91 ft | 0 kts | 2° |
| 2026-04-26 14:02 | 9.74477 | 118.75058 | 92 ft | 4 kts | 2° |
| 2026-04-26 14:02 | 9.74450 | 118.75057 | 89 ft | 4 kts | 2° |
| 2026-04-26 14:03 | 9.74426 | 118.75057 | 89 ft | 4 kts | 323° |
| 2026-04-26 14:03 | 9.74415 | 118.75077 | 89 ft | 2 kts | 273° |
| 2026-04-26 14:03 | 9.74414 | 118.75098 | 91 ft | 2 kts | 272° |
| 2026-04-26 14:03 | 9.74414 | 118.75100 | 91 ft | 0 kts | 272° |
| 2026-04-26 14:05 | 9.74414 | 118.75092 | 91 ft | 3 kts | 271° |
| 2026-04-26 14:05 | 9.74415 | 118.75062 | 90 ft | 5 kts | 271° |
| 2026-04-26 14:05 | 9.74417 | 118.75012 | 89 ft | 9 kts | 272° |
| 2026-04-26 14:05 | 9.74421 | 118.74935 | 90 ft | 13 kts | 272° |
| 2026-04-26 14:06 | 9.74425 | 118.74832 | 87 ft | 16 kts | 272° |
| 2026-04-26 14:06 | 9.74412 | 118.74723 | 92 ft | 12 kts | 226° |
| 2026-04-26 14:06 | 9.74384 | 118.74710 | 91 ft | 0 kts | 191° |
| 2026-04-26 14:11 | 9.74381 | 118.74710 | 84 ft | 0 kts | 191° |
| 2026-04-26 14:13 | 9.74379 | 118.74709 | 87 ft | 2 kts | 191° |
| 2026-04-26 14:14 | 9.74332 | 118.74706 | 91 ft | 14 kts | 178° |
| 2026-04-26 14:14 | 9.74267 | 118.74736 | 88 ft | 6 kts | 107° |
| 2026-04-26 14:14 | 9.74262 | 118.74814 | 87 ft | 30 kts | 93° |
| 2026-04-26 14:14 | 9.74239 | 118.75324 | 90 ft | 112 kts | 92° |
| 2026-04-26 14:15 | 9.74194 | 118.76341 | 210 ft | 165 kts | 93° |
| 2026-04-26 14:15 | 9.74299 | 118.77505 | 948 ft | 171 kts | 64° |
| 2026-04-26 14:15 | 9.75175 | 118.78262 | 1842 ft | 170 kts | 23° |
| 2026-04-26 14:15 | 9.76333 | 118.78649 | 2309 ft | 184 kts | 18° |
| 2026-04-26 14:16 | 9.77649 | 118.79045 | 2531 ft | 213 kts | 19° |
| 2026-04-26 14:16 | 9.79127 | 118.79538 | 3108 ft | 230 kts | 20° |
| 2026-04-26 14:16 | 9.80650 | 118.80078 | 3994 ft | 233 kts | 22° |
| 2026-04-26 14:16 | 9.82188 | 118.80637 | 4878 ft | 237 kts | 23° |
| 2026-04-26 14:17 | 9.83730 | 118.81208 | 5709 ft | 241 kts | 23° |
| 2026-04-26 14:17 | 9.85323 | 118.81802 | 6565 ft | 246 kts | 23° |
| 2026-04-26 14:17 | 9.86943 | 118.82409 | 7399 ft | 250 kts | 23° |
| 2026-04-26 14:17 | 9.88594 | 118.83008 | 8285 ft | 254 kts | 19° |
| 2026-04-26 14:18 | 9.90369 | 118.83276 | 9099 ft | 267 kts | 4° |
| 2026-04-26 14:18 | 9.92290 | 118.83250 | 9747 ft | 282 kts | 360° |
| 2026-04-26 14:18 | 9.94276 | 118.83169 | 10370 ft | 297 kts | 359° |
| 2026-04-26 14:18 | 9.96423 | 118.83089 | 10717 ft | 320 kts | 360° |
| 2026-04-26 14:19 | 9.98727 | 118.83010 | 11106 ft | 339 kts | 360° |
| 2026-04-26 14:19 | 10.01121 | 118.82933 | 11702 ft | 349 kts | 360° |
| 2026-04-26 14:19 | 10.03569 | 118.82857 | 12418 ft | 355 kts | 359° |
| 2026-04-26 14:19 | 10.06054 | 118.82781 | 13147 ft | 359 kts | 359° |
| 2026-04-26 14:20 | 10.08575 | 118.82705 | 13848 ft | 365 kts | 359° |
| 2026-04-26 14:20 | 10.11128 | 118.82629 | 14483 ft | 369 kts | 359° |
| 2026-04-26 14:20 | 10.13710 | 118.82552 | 15122 ft | 373 kts | 359° |
| 2026-04-26 14:20 | 10.16324 | 118.82478 | 15749 ft | 378 kts | 359° |
| 2026-04-26 14:21 | 10.18970 | 118.82398 | 16365 ft | 382 kts | 359° |
| 2026-04-26 14:21 | 10.21651 | 118.82316 | 16985 ft | 387 kts | 360° |
| 2026-04-26 14:21 | 10.24355 | 118.82234 | 17600 ft | 391 kts | 359° |
| 2026-04-26 14:21 | 10.27087 | 118.82152 | 18196 ft | 395 kts | 359° |
| 2026-04-26 14:22 | 10.29809 | 118.82071 | 18715 ft | 398 kts | 359° |
| 2026-04-26 14:22 | 10.32595 | 118.81987 | 19249 ft | 402 kts | 359° |
| 2026-04-26 14:22 | 10.35409 | 118.81903 | 19797 ft | 405 kts | 359° |
| 2026-04-26 14:22 | 10.38244 | 118.81818 | 20363 ft | 408 kts | 359° |
| 2026-04-26 14:23 | 10.41096 | 118.81780 | 20924 ft | 411 kts | 1° |
| 2026-04-26 14:23 | 10.43974 | 118.81880 | 21484 ft | 415 kts | 4° |
| 2026-04-26 14:23 | 10.46866 | 118.82061 | 22047 ft | 418 kts | 4° |
| 2026-04-26 14:23 | 10.49787 | 118.82281 | 22613 ft | 421 kts | 5° |
| 2026-04-26 14:24 | 10.52686 | 118.82511 | 23148 ft | 425 kts | 5° |
| 2026-04-26 14:24 | 10.55650 | 118.82742 | 23649 ft | 428 kts | 4° |
| 2026-04-26 14:24 | 10.58633 | 118.82967 | 24071 ft | 432 kts | 4° |
| 2026-04-26 14:24 | 10.61654 | 118.83188 | 24498 ft | 437 kts | 4° |
| 2026-04-26 14:25 | 10.64702 | 118.83405 | 24937 ft | 441 kts | 4° |
| 2026-04-26 14:25 | 10.67791 | 118.83622 | 25409 ft | 445 kts | 4° |
| 2026-04-26 14:25 | 10.70891 | 118.83838 | 25943 ft | 448 kts | 4° |
| 2026-04-26 14:25 | 10.74018 | 118.84057 | 26457 ft | 452 kts | 4° |
| 2026-04-26 14:26 | 10.77186 | 118.84278 | 26907 ft | 458 kts | 3° |
| 2026-04-26 14:26 | 10.80374 | 118.84501 | 27458 ft | 461 kts | 4° |
| 2026-04-26 14:26 | 10.83541 | 118.84723 | 27991 ft | 464 kts | 3° |
| 2026-04-26 14:26 | 10.86784 | 118.84951 | 28430 ft | 470 kts | 3° |
| 2026-04-26 14:27 | 10.90067 | 118.85181 | 28917 ft | 474 kts | 3° |
| 2026-04-26 14:27 | 10.93366 | 118.85413 | 29507 ft | 475 kts | 3° |
| 2026-04-26 14:27 | 10.96688 | 118.85647 | 29951 ft | 480 kts | 3° |
| 2026-04-26 14:27 | 11.00037 | 118.85882 | 30335 ft | 484 kts | 3° |
| 2026-04-26 14:28 | 11.03409 | 118.86119 | 30762 ft | 487 kts | 3° |
| 2026-04-26 14:28 | 11.06795 | 118.86358 | 31161 ft | 490 kts | 3° |
| 2026-04-26 14:28 | 11.10218 | 118.86598 | 31539 ft | 493 kts | 3° |
| 2026-04-26 14:28 | 11.13653 | 118.86841 | 31945 ft | 496 kts | 3° |
| 2026-04-26 14:29 | 11.17064 | 118.87083 | 32319 ft | 499 kts | 3° |
| 2026-04-26 14:29 | 11.20540 | 118.87327 | 32689 ft | 502 kts | 3° |
| 2026-04-26 14:29 | 11.24037 | 118.87572 | 33038 ft | 505 kts | 2° |
| 2026-04-26 14:29 | 11.27555 | 118.87819 | 33382 ft | 508 kts | 2° |
| 2026-04-26 14:30 | 11.31091 | 118.88068 | 33727 ft | 511 kts | 2° |
| 2026-04-26 14:30 | 11.34646 | 118.88318 | 34026 ft | 513 kts | 2° |
| 2026-04-26 14:30 | 11.37062 | 118.88488 | 34224 ft | 515 kts | 2° |
| 2026-04-26 14:30 | 11.40604 | 118.88737 | 34550 ft | 516 kts | 2° |
| 2026-04-26 14:31 | 11.44181 | 118.88990 | 34997 ft | 514 kts | 2° |
| 2026-04-26 14:31 | 11.47743 | 118.89242 | 35450 ft | 512 kts | 2° |
| 2026-04-26 14:31 | 11.51288 | 118.89493 | 35877 ft | 510 kts | 2° |
| 2026-04-26 14:31 | 11.54828 | 118.89743 | 36285 ft | 509 kts | 2° |
| 2026-04-26 14:32 | 11.58365 | 118.89993 | 36707 ft | 507 kts | 2° |
| 2026-04-26 14:32 | 11.61879 | 118.90241 | 37102 ft | 506 kts | 2° |
| 2026-04-26 14:32 | 11.65404 | 118.90490 | 37502 ft | 505 kts | 2° |
| 2026-04-26 14:32 | 11.68904 | 118.90737 | 37884 ft | 503 kts | 2° |
| 2026-04-26 14:33 | 11.72347 | 118.90980 | 38250 ft | 502 kts | 2° |
| 2026-04-26 14:33 | 11.75838 | 118.91227 | 38608 ft | 501 kts | 2° |
| 2026-04-26 14:33 | 11.79329 | 118.91474 | 38852 ft | 501 kts | 2° |
| 2026-04-26 14:34 | 11.86293 | 118.91966 | 38911 ft | 499 kts | 2° |
| 2026-04-26 14:34 | 11.93213 | 118.92456 | 38904 ft | 498 kts | 2° |
| 2026-04-26 14:35 | 12.00126 | 118.92945 | 38908 ft | 497 kts | 2° |
| 2026-04-26 14:35 | 12.07038 | 118.93435 | 38905 ft | 497 kts | 2° |
| 2026-04-26 14:36 | 12.13903 | 118.93921 | 38908 ft | 497 kts | 2° |
| 2026-04-26 14:36 | 12.20805 | 118.94410 | 38907 ft | 497 kts | 2° |
| 2026-04-26 14:37 | 12.27702 | 118.94900 | 38913 ft | 495 kts | 2° |
| 2026-04-26 14:37 | 12.34589 | 118.95389 | 38910 ft | 495 kts | 2° |
| 2026-04-26 14:38 | 12.41463 | 118.95877 | 38908 ft | 495 kts | 2° |
| 2026-04-26 14:38 | 12.48303 | 118.96363 | 38908 ft | 496 kts | 2° |
| 2026-04-26 14:39 | 12.55230 | 118.96856 | 38909 ft | 495 kts | 2° |
| 2026-04-26 14:39 | 12.62049 | 118.97341 | 38909 ft | 494 kts | 2° |
| 2026-04-26 14:40 | 12.68911 | 118.97829 | 38906 ft | 494 kts | 2° |
| 2026-04-26 14:40 | 12.75768 | 118.98317 | 38908 ft | 494 kts | 2° |
| 2026-04-26 14:41 | 12.82634 | 118.98806 | 38906 ft | 494 kts | 2° |
| 2026-04-26 14:41 | 12.89506 | 118.99297 | 38908 ft | 494 kts | 2° |
| 2026-04-26 14:42 | 12.96363 | 118.99827 | 38904 ft | 495 kts | 6° |
| 2026-04-26 14:42 | 12.99724 | 119.00656 | 38909 ft | 498 kts | 19° |
| 2026-04-26 14:42 | 13.02770 | 119.02245 | 38910 ft | 500 kts | 33° |
| 2026-04-26 14:42 | 13.05379 | 119.04620 | 38911 ft | 502 kts | 48° |
| 2026-04-26 14:43 | 13.07595 | 119.07418 | 38909 ft | 503 kts | 51° |
| 2026-04-26 14:43 | 13.11860 | 119.13095 | 38911 ft | 505 kts | 51° |
| 2026-04-26 14:44 | 13.16177 | 119.18815 | 38906 ft | 507 kts | 51° |
| 2026-04-26 14:44 | 13.20503 | 119.24535 | 38461 ft | 503 kts | 51° |
| 2026-04-26 14:44 | 13.22627 | 119.27342 | 37487 ft | 507 kts | 51° |
| 2026-04-26 14:45 | 13.24803 | 119.30217 | 36594 ft | 510 kts | 51° |
| 2026-04-26 14:45 | 13.26247 | 119.32126 | 36121 ft | 510 kts | 51° |
| 2026-04-26 14:45 | 13.29160 | 119.35978 | 35179 ft | 509 kts | 51° |
| 2026-04-26 14:45 | 13.31309 | 119.38821 | 34545 ft | 508 kts | 51° |
| 2026-04-26 14:46 | 13.33468 | 119.41678 | 34005 ft | 505 kts | 51° |
| 2026-04-26 14:46 | 13.35616 | 119.44521 | 33408 ft | 501 kts | 51° |
| 2026-04-26 14:46 | 13.37745 | 119.47340 | 32853 ft | 497 kts | 52° |
| 2026-04-26 14:46 | 13.39860 | 119.50141 | 32306 ft | 493 kts | 52° |
| 2026-04-26 14:47 | 13.41955 | 119.52916 | 31754 ft | 489 kts | 52° |
| 2026-04-26 14:47 | 13.44028 | 119.55663 | 31220 ft | 486 kts | 52° |
| 2026-04-26 14:47 | 13.46088 | 119.58394 | 30709 ft | 482 kts | 52° |
| 2026-04-26 14:47 | 13.48141 | 119.61116 | 30169 ft | 479 kts | 52° |
| 2026-04-26 14:48 | 13.50172 | 119.63811 | 29595 ft | 475 kts | 52° |
| 2026-04-26 14:48 | 13.52187 | 119.66484 | 29061 ft | 470 kts | 52° |
| 2026-04-26 14:48 | 13.54174 | 119.69123 | 28547 ft | 465 kts | 52° |
| 2026-04-26 14:48 | 13.56120 | 119.71708 | 28044 ft | 460 kts | 52° |
| 2026-04-26 14:49 | 13.58068 | 119.74295 | 27547 ft | 455 kts | 52° |
| 2026-04-26 14:49 | 13.59998 | 119.76859 | 27052 ft | 450 kts | 52° |
| 2026-04-26 14:49 | 13.61909 | 119.79400 | 26565 ft | 446 kts | 52° |
| 2026-04-26 14:49 | 13.63797 | 119.81910 | 26057 ft | 442 kts | 51° |
| 2026-04-26 14:50 | 13.65670 | 119.84400 | 25572 ft | 438 kts | 51° |
| 2026-04-26 14:50 | 13.67529 | 119.86874 | 25061 ft | 434 kts | 51° |
| 2026-04-26 14:50 | 13.69350 | 119.89296 | 24571 ft | 430 kts | 51° |
| 2026-04-26 14:50 | 13.71171 | 119.91721 | 24083 ft | 427 kts | 51° |
| 2026-04-26 14:51 | 13.72979 | 119.94127 | 23588 ft | 423 kts | 51° |
| 2026-04-26 14:51 | 13.74769 | 119.96511 | 23060 ft | 419 kts | 51° |
| 2026-04-26 14:51 | 13.76537 | 119.98866 | 22705 ft | 410 kts | 51° |
| 2026-04-26 14:51 | 13.78246 | 120.01145 | 22570 ft | 395 kts | 51° |
| 2026-04-26 14:52 | 13.79896 | 120.03346 | 22454 ft | 381 kts | 50° |
| 2026-04-26 14:52 | 13.81485 | 120.05465 | 22288 ft | 369 kts | 50° |
| 2026-04-26 14:52 | 13.83034 | 120.07531 | 22022 ft | 360 kts | 50° |
| 2026-04-26 14:52 | 13.84586 | 120.09540 | 21597 ft | 356 kts | 46° |
| 2026-04-26 14:53 | 13.86465 | 120.11130 | 21216 ft | 347 kts | 26° |
| 2026-04-26 14:53 | 13.88592 | 120.12187 | 20853 ft | 341 kts | 22° |
| 2026-04-26 14:53 | 13.90753 | 120.13147 | 20510 ft | 336 kts | 22° |
| 2026-04-26 14:53 | 13.92883 | 120.14091 | 20177 ft | 331 kts | 22° |
| 2026-04-26 14:54 | 13.94994 | 120.15032 | 19842 ft | 328 kts | 22° |
| 2026-04-26 14:54 | 13.97075 | 120.15964 | 19508 ft | 326 kts | 22° |
| 2026-04-26 14:54 | 13.99154 | 120.16898 | 19179 ft | 325 kts | 22° |
| 2026-04-26 14:54 | 14.01226 | 120.17830 | 18838 ft | 324 kts | 22° |
| 2026-04-26 14:55 | 14.03288 | 120.18759 | 18511 ft | 322 kts | 22° |
| 2026-04-26 14:55 | 14.05336 | 120.19682 | 18180 ft | 321 kts | 22° |
| 2026-04-26 14:55 | 14.07379 | 120.20603 | 17818 ft | 320 kts | 22° |
| 2026-04-26 14:55 | 14.09387 | 120.21509 | 17489 ft | 318 kts | 23° |
| 2026-04-26 14:56 | 14.11409 | 120.22422 | 17156 ft | 316 kts | 23° |
| 2026-04-26 14:56 | 14.13419 | 120.23329 | 16833 ft | 314 kts | 23° |
| 2026-04-26 14:56 | 14.15418 | 120.24232 | 16512 ft | 313 kts | 23° |
| 2026-04-26 14:56 | 14.17404 | 120.25128 | 16190 ft | 311 kts | 23° |
| 2026-04-26 14:57 | 14.19397 | 120.26028 | 15962 ft | 318 kts | 23° |
| 2026-04-26 14:57 | 14.21460 | 120.26960 | 15890 ft | 328 kts | 23° |
| 2026-04-26 14:57 | 14.23562 | 120.27910 | 15906 ft | 330 kts | 23° |